sensor_id;sensor_type;location;lat;lon;timestamp;P1;durP1;ratioP1;P2;durP2;ratioP2
61471;SDS011;47337;54.068;12.114;2023-12-20T00:01:40;8.60;;;1.50;;
61471;SDS011;47337;54.068;12.114;2023-12-20T00:04:06;3.88;;;1.73;;
61471;SDS011;47337;54.068;12.114;2023-12-20T00:06:31;5.65;;;1.73;;
61471;SDS011;47337;54.068;12.114;2023-12-20T00:08:57;5.68;;;1.92;;
61471;SDS011;47337;54.068;12.114;2023-12-20T00:11:27;6.00;;;1.95;;
61471;SDS011;47337;54.068;12.114;2023-12-20T00:13:55;5.25;;;1.30;;
61471;SDS011;47337;54.068;12.114;2023-12-20T00:16:21;6.70;;;1.85;;
61471;SDS011;47337;54.068;12.114;2023-12-20T00:18:46;6.28;;;1.30;;
61471;SDS011;47337;54.068;12.114;2023-12-20T00:21:11;7.22;;;1.60;;
61471;SDS011;47337;54.068;12.114;2023-12-20T00:23:37;5.97;;;1.52;;
61471;SDS011;47337;54.068;12.114;2023-12-20T00:26:02;4.90;;;1.75;;
61471;SDS011;47337;54.068;12.114;2023-12-20T00:28:31;6.72;;;1.60;;
61471;SDS011;47337;54.068;12.114;2023-12-20T00:30:57;2.90;;;1.42;;
61471;SDS011;47337;54.068;12.114;2023-12-20T00:33:22;5.22;;;1.50;;
61471;SDS011;47337;54.068;12.114;2023-12-20T00:35:48;6.57;;;2.50;;
61471;SDS011;47337;54.068;12.114;2023-12-20T00:38:14;6.90;;;1.42;;
61471;SDS011;47337;54.068;12.114;2023-12-20T00:40:39;5.63;;;1.60;;
61471;SDS011;47337;54.068;12.114;2023-12-20T00:43:05;7.57;;;1.65;;
61471;SDS011;47337;54.068;12.114;2023-12-20T00:45:30;8.38;;;1.70;;
61471;SDS011;47337;54.068;12.114;2023-12-20T00:47:56;7.47;;;1.40;;
61471;SDS011;47337;54.068;12.114;2023-12-20T00:50:21;8.73;;;1.58;;
61471;SDS011;47337;54.068;12.114;2023-12-20T00:52:47;6.13;;;1.10;;
61471;SDS011;47337;54.068;12.114;2023-12-20T00:55:12;5.38;;;1.75;;
61471;SDS011;47337;54.068;12.114;2023-12-20T00:57:40;5.82;;;0.93;;
61471;SDS011;47337;54.068;12.114;2023-12-20T01:00:08;9.02;;;1.20;;
61471;SDS011;47337;54.068;12.114;2023-12-20T01:02:36;8.00;;;0.90;;
61471;SDS011;47337;54.068;12.114;2023-12-20T01:05:01;5.00;;;1.23;;
61471;SDS011;47337;54.068;12.114;2023-12-20T01:07:29;3.30;;;0.73;;
61471;SDS011;47337;54.068;12.114;2023-12-20T01:09:54;8.98;;;1.15;;
61471;SDS011;47337;54.068;12.114;2023-12-20T01:12:20;3.45;;;0.65;;
61471;SDS011;47337;54.068;12.114;2023-12-20T01:14:47;11.00;;;1.13;;
61471;SDS011;47337;54.068;12.114;2023-12-20T01:17:13;6.85;;;0.80;;
61471;SDS011;47337;54.068;12.114;2023-12-20T01:19:39;4.40;;;0.90;;
61471;SDS011;47337;54.068;12.114;2023-12-20T01:22:07;7.03;;;1.30;;
61471;SDS011;47337;54.068;12.114;2023-12-20T01:24:32;7.65;;;1.33;;
61471;SDS011;47337;54.068;12.114;2023-12-20T01:26:58;6.25;;;0.80;;
61471;SDS011;47337;54.068;12.114;2023-12-20T01:29:23;8.45;;;1.13;;
61471;SDS011;47337;54.068;12.114;2023-12-20T01:31:49;7.85;;;1.30;;
61471;SDS011;47337;54.068;12.114;2023-12-20T01:34:15;6.72;;;1.35;;
61471;SDS011;47337;54.068;12.114;2023-12-20T01:36:40;3.45;;;0.70;;
61471;SDS011;47337;54.068;12.114;2023-12-20T01:39:06;2.20;;;0.88;;
61471;SDS011;47337;54.068;12.114;2023-12-20T01:41:33;4.45;;;0.80;;
61471;SDS011;47337;54.068;12.114;2023-12-20T01:43:59;7.40;;;1.70;;
61471;SDS011;47337;54.068;12.114;2023-12-20T01:46:24;3.03;;;1.13;;
61471;SDS011;47337;54.068;12.114;2023-12-20T01:48:50;7.63;;;1.00;;
61471;SDS011;47337;54.068;12.114;2023-12-20T01:51:16;6.80;;;1.20;;
61471;SDS011;47337;54.068;12.114;2023-12-20T01:53:45;6.10;;;0.75;;
61471;SDS011;47337;54.068;12.114;2023-12-20T01:56:11;7.03;;;1.27;;
61471;SDS011;47337;54.068;12.114;2023-12-20T01:58:43;8.82;;;1.30;;
61471;SDS011;47337;54.068;12.114;2023-12-20T02:01:10;8.93;;;2.63;;
61471;SDS011;47337;54.068;12.114;2023-12-20T02:03:36;8.30;;;0.95;;
61471;SDS011;47337;54.068;12.114;2023-12-20T02:06:02;8.98;;;2.03;;
61471;SDS011;47337;54.068;12.114;2023-12-20T02:08:28;12.90;;;1.48;;
61471;SDS011;47337;54.068;12.114;2023-12-20T02:10:54;5.60;;;2.00;;
61471;SDS011;47337;54.068;12.114;2023-12-20T02:13:21;9.50;;;2.17;;
61471;SDS011;47337;54.068;12.114;2023-12-20T02:15:47;9.35;;;1.83;;
61471;SDS011;47337;54.068;12.114;2023-12-20T02:18:13;8.25;;;2.22;;
61471;SDS011;47337;54.068;12.114;2023-12-20T02:20:40;11.77;;;2.20;;
61471;SDS011;47337;54.068;12.114;2023-12-20T02:23:06;11.68;;;2.38;;
61471;SDS011;47337;54.068;12.114;2023-12-20T02:25:31;14.25;;;3.05;;
61471;SDS011;47337;54.068;12.114;2023-12-20T02:27:57;12.15;;;2.78;;
61471;SDS011;47337;54.068;12.114;2023-12-20T02:30:22;19.92;;;3.08;;
61471;SDS011;47337;54.068;12.114;2023-12-20T02:32:48;10.82;;;2.70;;
61471;SDS011;47337;54.068;12.114;2023-12-20T02:35:15;10.55;;;3.03;;
61471;SDS011;47337;54.068;12.114;2023-12-20T02:37:40;15.13;;;3.03;;
61471;SDS011;47337;54.068;12.114;2023-12-20T02:40:08;6.53;;;2.13;;
61471;SDS011;47337;54.068;12.114;2023-12-20T02:42:34;9.88;;;2.03;;
61471;SDS011;47337;54.068;12.114;2023-12-20T02:44:59;16.63;;;2.40;;
61471;SDS011;47337;54.068;12.114;2023-12-20T02:47:24;19.73;;;2.30;;
61471;SDS011;47337;54.068;12.114;2023-12-20T02:49:50;14.18;;;2.80;;
61471;SDS011;47337;54.068;12.114;2023-12-20T02:52:18;14.23;;;2.22;;
61471;SDS011;47337;54.068;12.114;2023-12-20T02:54:45;16.17;;;2.17;;
61471;SDS011;47337;54.068;12.114;2023-12-20T02:57:11;12.98;;;2.28;;
61471;SDS011;47337;54.068;12.114;2023-12-20T02:59:36;7.30;;;1.90;;
61471;SDS011;47337;54.068;12.114;2023-12-20T03:02:01;13.88;;;1.95;;
61471;SDS011;47337;54.068;12.114;2023-12-20T03:04:27;9.85;;;2.00;;
61471;SDS011;47337;54.068;12.114;2023-12-20T03:06:52;10.45;;;1.67;;
61471;SDS011;47337;54.068;12.114;2023-12-20T03:09:20;12.75;;;2.13;;
61471;SDS011;47337;54.068;12.114;2023-12-20T03:11:45;10.98;;;2.20;;
61471;SDS011;47337;54.068;12.114;2023-12-20T03:14:11;9.43;;;1.98;;
61471;SDS011;47337;54.068;12.114;2023-12-20T03:16:36;8.25;;;1.73;;
61471;SDS011;47337;54.068;12.114;2023-12-20T03:19:02;12.40;;;2.38;;
61471;SDS011;47337;54.068;12.114;2023-12-20T03:21:27;14.55;;;1.85;;
61471;SDS011;47337;54.068;12.114;2023-12-20T03:23:55;9.95;;;1.88;;
61471;SDS011;47337;54.068;12.114;2023-12-20T03:26:21;18.65;;;2.28;;
61471;SDS011;47337;54.068;12.114;2023-12-20T03:28:47;19.35;;;2.67;;
61471;SDS011;47337;54.068;12.114;2023-12-20T03:31:13;11.10;;;1.77;;
61471;SDS011;47337;54.068;12.114;2023-12-20T03:33:38;16.02;;;2.00;;
61471;SDS011;47337;54.068;12.114;2023-12-20T03:36:06;13.45;;;2.72;;
61471;SDS011;47337;54.068;12.114;2023-12-20T03:38:32;12.35;;;1.95;;
61471;SDS011;47337;54.068;12.114;2023-12-20T03:40:57;11.25;;;1.40;;
61471;SDS011;47337;54.068;12.114;2023-12-20T03:43:25;11.50;;;2.35;;
61471;SDS011;47337;54.068;12.114;2023-12-20T03:45:50;11.07;;;1.23;;
61471;SDS011;47337;54.068;12.114;2023-12-20T03:48:16;8.05;;;1.50;;
61471;SDS011;47337;54.068;12.114;2023-12-20T03:50:41;14.68;;;1.50;;
61471;SDS011;47337;54.068;12.114;2023-12-20T03:53:07;11.95;;;1.40;;
61471;SDS011;47337;54.068;12.114;2023-12-20T03:55:35;7.72;;;1.83;;
61471;SDS011;47337;54.068;12.114;2023-12-20T03:58:00;16.10;;;2.30;;
61471;SDS011;47337;54.068;12.114;2023-12-20T04:00:28;13.05;;;2.30;;
61471;SDS011;47337;54.068;12.114;2023-12-20T04:02:54;17.00;;;4.25;;
61471;SDS011;47337;54.068;12.114;2023-12-20T04:05:19;17.02;;;1.85;;
61471;SDS011;47337;54.068;12.114;2023-12-20T04:07:47;8.95;;;2.25;;
61471;SDS011;47337;54.068;12.114;2023-12-20T04:10:12;6.97;;;1.73;;
61471;SDS011;47337;54.068;12.114;2023-12-20T04:12:38;11.95;;;2.58;;
61471;SDS011;47337;54.068;12.114;2023-12-20T04:15:05;14.38;;;2.28;;
61471;SDS011;47337;54.068;12.114;2023-12-20T04:17:34;11.60;;;1.75;;
61471;SDS011;47337;54.068;12.114;2023-12-20T04:20:00;10.20;;;2.40;;
61471;SDS011;47337;54.068;12.114;2023-12-20T04:22:25;9.23;;;1.50;;
61471;SDS011;47337;54.068;12.114;2023-12-20T04:24:51;13.25;;;2.05;;
61471;SDS011;47337;54.068;12.114;2023-12-20T04:27:16;8.02;;;2.60;;
61471;SDS011;47337;54.068;12.114;2023-12-20T04:29:41;10.73;;;2.03;;
61471;SDS011;47337;54.068;12.114;2023-12-20T04:32:13;8.25;;;1.80;;
61471;SDS011;47337;54.068;12.114;2023-12-20T04:34:41;7.38;;;2.15;;
61471;SDS011;47337;54.068;12.114;2023-12-20T04:37:06;9.50;;;2.40;;
61471;SDS011;47337;54.068;12.114;2023-12-20T04:39:31;8.07;;;2.25;;
61471;SDS011;47337;54.068;12.114;2023-12-20T04:41:58;18.58;;;2.60;;
61471;SDS011;47337;54.068;12.114;2023-12-20T04:44:26;8.32;;;2.53;;
61471;SDS011;47337;54.068;12.114;2023-12-20T04:46:54;9.23;;;2.00;;
61471;SDS011;47337;54.068;12.114;2023-12-20T04:49:21;12.13;;;3.63;;
61471;SDS011;47337;54.068;12.114;2023-12-20T04:51:46;9.00;;;2.83;;
61471;SDS011;47337;54.068;12.114;2023-12-20T04:54:15;14.75;;;2.67;;
61471;SDS011;47337;54.068;12.114;2023-12-20T04:56:45;11.23;;;3.53;;
61471;SDS011;47337;54.068;12.114;2023-12-20T04:59:12;8.65;;;2.90;;
61471;SDS011;47337;54.068;12.114;2023-12-20T05:01:40;8.80;;;2.55;;
61471;SDS011;47337;54.068;12.114;2023-12-20T05:04:05;16.05;;;3.65;;
61471;SDS011;47337;54.068;12.114;2023-12-20T05:06:31;13.27;;;2.70;;
61471;SDS011;47337;54.068;12.114;2023-12-20T05:08:56;14.68;;;3.42;;
61471;SDS011;47337;54.068;12.114;2023-12-20T05:11:21;17.23;;;4.32;;
61471;SDS011;47337;54.068;12.114;2023-12-20T05:13:47;11.63;;;3.03;;
61471;SDS011;47337;54.068;12.114;2023-12-20T05:16:12;16.10;;;3.67;;
61471;SDS011;47337;54.068;12.114;2023-12-20T05:18:39;15.75;;;3.30;;
61471;SDS011;47337;54.068;12.114;2023-12-20T05:21:05;9.02;;;2.50;;
61471;SDS011;47337;54.068;12.114;2023-12-20T05:23:30;15.57;;;3.95;;
61471;SDS011;47337;54.068;12.114;2023-12-20T05:25:55;14.77;;;3.08;;
61471;SDS011;47337;54.068;12.114;2023-12-20T05:28:21;18.67;;;3.08;;
61471;SDS011;47337;54.068;12.114;2023-12-20T05:30:46;6.53;;;2.00;;
61471;SDS011;47337;54.068;12.114;2023-12-20T05:33:11;9.77;;;2.40;;
61471;SDS011;47337;54.068;12.114;2023-12-20T05:35:37;7.20;;;2.85;;
61471;SDS011;47337;54.068;12.114;2023-12-20T05:38:04;7.85;;;2.25;;
61471;SDS011;47337;54.068;12.114;2023-12-20T05:40:30;18.33;;;2.83;;
61471;SDS011;47337;54.068;12.114;2023-12-20T05:42:58;8.35;;;2.55;;
61471;SDS011;47337;54.068;12.114;2023-12-20T05:45:23;12.43;;;2.40;;
61471;SDS011;47337;54.068;12.114;2023-12-20T05:47:48;12.35;;;3.00;;
61471;SDS011;47337;54.068;12.114;2023-12-20T05:50:14;9.93;;;2.65;;
61471;SDS011;47337;54.068;12.114;2023-12-20T05:52:44;13.52;;;3.05;;
61471;SDS011;47337;54.068;12.114;2023-12-20T05:55:12;12.98;;;2.80;;
61471;SDS011;47337;54.068;12.114;2023-12-20T05:57:37;6.20;;;2.25;;
61471;SDS011;47337;54.068;12.114;2023-12-20T06:00:03;10.02;;;2.83;;
61471;SDS011;47337;54.068;12.114;2023-12-20T06:02:29;17.35;;;2.85;;
61471;SDS011;47337;54.068;12.114;2023-12-20T06:04:54;7.90;;;2.20;;
61471;SDS011;47337;54.068;12.114;2023-12-20T06:07:22;9.98;;;2.38;;
61471;SDS011;47337;54.068;12.114;2023-12-20T06:09:50;8.70;;;2.67;;
61471;SDS011;47337;54.068;12.114;2023-12-20T06:12:16;9.50;;;2.72;;
61471;SDS011;47337;54.068;12.114;2023-12-20T06:14:41;11.60;;;3.47;;
61471;SDS011;47337;54.068;12.114;2023-12-20T06:17:07;12.63;;;2.67;;
61471;SDS011;47337;54.068;12.114;2023-12-20T06:19:32;6.55;;;2.55;;
61471;SDS011;47337;54.068;12.114;2023-12-20T06:21:57;7.13;;;2.40;;
61471;SDS011;47337;54.068;12.114;2023-12-20T06:24:23;10.98;;;2.65;;
61471;SDS011;47337;54.068;12.114;2023-12-20T06:26:52;10.48;;;2.33;;
61471;SDS011;47337;54.068;12.114;2023-12-20T06:29:22;6.18;;;2.15;;
61471;SDS011;47337;54.068;12.114;2023-12-20T06:31:48;10.20;;;2.47;;
61471;SDS011;47337;54.068;12.114;2023-12-20T06:34:13;9.27;;;2.30;;
61471;SDS011;47337;54.068;12.114;2023-12-20T06:36:39;9.75;;;2.38;;
61471;SDS011;47337;54.068;12.114;2023-12-20T06:39:06;14.02;;;2.75;;
61471;SDS011;47337;54.068;12.114;2023-12-20T06:41:32;13.95;;;3.00;;
61471;SDS011;47337;54.068;12.114;2023-12-20T06:43:59;9.77;;;3.45;;
61471;SDS011;47337;54.068;12.114;2023-12-20T06:46:24;5.72;;;2.20;;
61471;SDS011;47337;54.068;12.114;2023-12-20T06:48:50;9.90;;;2.33;;
61471;SDS011;47337;54.068;12.114;2023-12-20T06:51:17;7.55;;;2.50;;
61471;SDS011;47337;54.068;12.114;2023-12-20T06:53:45;7.93;;;2.42;;
61471;SDS011;47337;54.068;12.114;2023-12-20T06:56:10;6.85;;;2.38;;
61471;SDS011;47337;54.068;12.114;2023-12-20T06:58:37;3.20;;;1.30;;
61471;SDS011;47337;54.068;12.114;2023-12-20T07:01:03;5.25;;;0.98;;
61471;SDS011;47337;54.068;12.114;2023-12-20T07:03:29;3.28;;;1.00;;
61471;SDS011;47337;54.068;12.114;2023-12-20T07:05:55;6.80;;;1.30;;
61471;SDS011;47337;54.068;12.114;2023-12-20T07:08:22;6.72;;;1.40;;
61471;SDS011;47337;54.068;12.114;2023-12-20T07:10:48;7.47;;;1.60;;
61471;SDS011;47337;54.068;12.114;2023-12-20T07:13:13;6.65;;;1.67;;
61471;SDS011;47337;54.068;12.114;2023-12-20T07:15:39;9.98;;;1.98;;
61471;SDS011;47337;54.068;12.114;2023-12-20T07:18:04;8.27;;;2.50;;
61471;SDS011;47337;54.068;12.114;2023-12-20T07:20:31;7.57;;;1.95;;
61471;SDS011;47337;54.068;12.114;2023-12-20T07:22:57;7.88;;;1.95;;
61471;SDS011;47337;54.068;12.114;2023-12-20T07:25:22;4.35;;;1.90;;
61471;SDS011;47337;54.068;12.114;2023-12-20T07:27:47;9.80;;;2.75;;
61471;SDS011;47337;54.068;12.114;2023-12-20T07:30:13;10.45;;;2.33;;
61471;SDS011;47337;54.068;12.114;2023-12-20T07:32:41;10.90;;;2.67;;
61471;SDS011;47337;54.068;12.114;2023-12-20T07:35:06;5.72;;;2.08;;
61471;SDS011;47337;54.068;12.114;2023-12-20T07:37:32;17.77;;;3.58;;
61471;SDS011;47337;54.068;12.114;2023-12-20T07:39:57;11.95;;;3.15;;
61471;SDS011;47337;54.068;12.114;2023-12-20T07:42:22;7.05;;;2.90;;
61471;SDS011;47337;54.068;12.114;2023-12-20T07:44:48;11.40;;;3.25;;
61471;SDS011;47337;54.068;12.114;2023-12-20T07:47:16;9.90;;;2.85;;
61471;SDS011;47337;54.068;12.114;2023-12-20T07:49:46;9.20;;;2.95;;
61471;SDS011;47337;54.068;12.114;2023-12-20T07:52:14;8.55;;;2.83;;
61471;SDS011;47337;54.068;12.114;2023-12-20T07:54:39;11.18;;;3.00;;
61471;SDS011;47337;54.068;12.114;2023-12-20T07:57:05;6.95;;;2.20;;
61471;SDS011;47337;54.068;12.114;2023-12-20T07:59:33;5.85;;;1.92;;
61471;SDS011;47337;54.068;12.114;2023-12-20T08:01:58;4.93;;;1.95;;
61471;SDS011;47337;54.068;12.114;2023-12-20T08:04:23;5.50;;;2.10;;
61471;SDS011;47337;54.068;12.114;2023-12-20T08:06:50;7.05;;;2.22;;
61471;SDS011;47337;54.068;12.114;2023-12-20T08:09:15;7.38;;;1.30;;
61471;SDS011;47337;54.068;12.114;2023-12-20T08:11:46;7.60;;;1.60;;
61471;SDS011;47337;54.068;12.114;2023-12-20T08:14:17;7.57;;;1.75;;
61471;SDS011;47337;54.068;12.114;2023-12-20T08:16:42;7.03;;;1.42;;
61471;SDS011;47337;54.068;12.114;2023-12-20T08:19:10;5.28;;;1.00;;
61471;SDS011;47337;54.068;12.114;2023-12-20T08:21:35;3.47;;;1.13;;
61471;SDS011;47337;54.068;12.114;2023-12-20T08:24:01;7.35;;;1.67;;
61471;SDS011;47337;54.068;12.114;2023-12-20T08:26:26;4.68;;;1.00;;
61471;SDS011;47337;54.068;12.114;2023-12-20T08:28:52;7.35;;;1.33;;
61471;SDS011;47337;54.068;12.114;2023-12-20T08:31:17;5.70;;;1.40;;
61471;SDS011;47337;54.068;12.114;2023-12-20T08:33:47;11.68;;;3.35;;
61471;SDS011;47337;54.068;12.114;2023-12-20T08:36:13;6.45;;;1.73;;
61471;SDS011;47337;54.068;12.114;2023-12-20T08:38:39;7.88;;;1.20;;
61471;SDS011;47337;54.068;12.114;2023-12-20T08:41:04;6.80;;;1.45;;
61471;SDS011;47337;54.068;12.114;2023-12-20T08:43:34;7.20;;;1.70;;
61471;SDS011;47337;54.068;12.114;2023-12-20T08:46:00;9.82;;;1.70;;
61471;SDS011;47337;54.068;12.114;2023-12-20T08:48:25;6.43;;;1.70;;
61471;SDS011;47337;54.068;12.114;2023-12-20T08:50:50;6.72;;;1.15;;
61471;SDS011;47337;54.068;12.114;2023-12-20T08:53:17;5.65;;;0.98;;
61471;SDS011;47337;54.068;12.114;2023-12-20T08:55:46;6.90;;;0.90;;
61471;SDS011;47337;54.068;12.114;2023-12-20T08:58:12;4.45;;;1.17;;
61471;SDS011;47337;54.068;12.114;2023-12-20T09:00:37;8.73;;;1.25;;
61471;SDS011;47337;54.068;12.114;2023-12-20T09:03:03;3.38;;;0.90;;
61471;SDS011;47337;54.068;12.114;2023-12-20T09:05:29;4.93;;;0.80;;
61471;SDS011;47337;54.068;12.114;2023-12-20T09:07:55;2.83;;;0.55;;
61471;SDS011;47337;54.068;12.114;2023-12-20T09:10:21;8.60;;;0.90;;
61471;SDS011;47337;54.068;12.114;2023-12-20T09:12:52;5.45;;;0.70;;
61471;SDS011;47337;54.068;12.114;2023-12-20T09:15:25;1.90;;;0.93;;
61471;SDS011;47337;54.068;12.114;2023-12-20T09:17:51;5.18;;;1.40;;
61471;SDS011;47337;54.068;12.114;2023-12-20T09:20:17;6.50;;;0.77;;
61471;SDS011;47337;54.068;12.114;2023-12-20T09:22:42;5.20;;;1.15;;
61471;SDS011;47337;54.068;12.114;2023-12-20T09:25:09;5.25;;;1.20;;
61471;SDS011;47337;54.068;12.114;2023-12-20T09:27:36;4.85;;;1.58;;
61471;SDS011;47337;54.068;12.114;2023-12-20T09:30:01;2.67;;;1.30;;
61471;SDS011;47337;54.068;12.114;2023-12-20T09:32:27;7.72;;;1.30;;
61471;SDS011;47337;54.068;12.114;2023-12-20T09:34:52;6.18;;;1.98;;
61471;SDS011;47337;54.068;12.114;2023-12-20T09:37:18;5.55;;;1.25;;
61471;SDS011;47337;54.068;12.114;2023-12-20T09:39:43;3.75;;;1.20;;
61471;SDS011;47337;54.068;12.114;2023-12-20T09:42:11;4.75;;;1.60;;
61471;SDS011;47337;54.068;12.114;2023-12-20T09:44:43;5.30;;;1.60;;
61471;SDS011;47337;54.068;12.114;2023-12-20T09:47:09;4.85;;;1.10;;
61471;SDS011;47337;54.068;12.114;2023-12-20T09:49:37;6.43;;;1.42;;
61471;SDS011;47337;54.068;12.114;2023-12-20T09:52:03;5.25;;;1.25;;
61471;SDS011;47337;54.068;12.114;2023-12-20T09:54:32;2.85;;;1.20;;
61471;SDS011;47337;54.068;12.114;2023-12-20T09:56:58;4.47;;;1.95;;
61471;SDS011;47337;54.068;12.114;2023-12-20T09:59:23;6.45;;;1.95;;
61471;SDS011;47337;54.068;12.114;2023-12-20T10:01:48;4.50;;;0.98;;
61471;SDS011;47337;54.068;12.114;2023-12-20T10:04:15;2.88;;;0.80;;
61471;SDS011;47337;54.068;12.114;2023-12-20T10:06:42;6.00;;;1.00;;
61471;SDS011;47337;54.068;12.114;2023-12-20T10:09:08;3.65;;;1.02;;
61471;SDS011;47337;54.068;12.114;2023-12-20T10:11:37;5.20;;;1.52;;
61471;SDS011;47337;54.068;12.114;2023-12-20T10:14:03;6.10;;;1.42;;
61471;SDS011;47337;54.068;12.114;2023-12-20T10:16:29;6.53;;;1.55;;
61471;SDS011;47337;54.068;12.114;2023-12-20T10:18:55;5.97;;;1.90;;
61471;SDS011;47337;54.068;12.114;2023-12-20T10:21:24;9.15;;;1.98;;
61471;SDS011;47337;54.068;12.114;2023-12-20T10:23:51;7.40;;;2.28;;
61471;SDS011;47337;54.068;12.114;2023-12-20T10:26:20;7.07;;;2.25;;
61471;SDS011;47337;54.068;12.114;2023-12-20T10:29:00;5.68;;;1.90;;
61471;SDS011;47337;54.068;12.114;2023-12-20T10:31:27;6.38;;;2.53;;
61471;SDS011;47337;54.068;12.114;2023-12-20T10:33:53;8.48;;;2.10;;
61471;SDS011;47337;54.068;12.114;2023-12-20T10:36:18;7.30;;;1.75;;
61471;SDS011;47337;54.068;12.114;2023-12-20T10:38:43;7.38;;;1.77;;
61471;SDS011;47337;54.068;12.114;2023-12-20T10:41:12;6.57;;;2.17;;
61471;SDS011;47337;54.068;12.114;2023-12-20T10:43:42;10.13;;;2.42;;
61471;SDS011;47337;54.068;12.114;2023-12-20T10:46:08;4.85;;;1.52;;
61471;SDS011;47337;54.068;12.114;2023-12-20T10:48:33;4.85;;;1.00;;
61471;SDS011;47337;54.068;12.114;2023-12-20T10:51:00;2.28;;;1.05;;
61471;SDS011;47337;54.068;12.114;2023-12-20T10:53:26;5.75;;;0.85;;
61471;SDS011;47337;54.068;12.114;2023-12-20T10:55:52;1.17;;;0.40;;
61471;SDS011;47337;54.068;12.114;2023-12-20T10:58:21;0.90;;;0.47;;
61471;SDS011;47337;54.068;12.114;2023-12-20T11:00:50;2.13;;;0.63;;
61471;SDS011;47337;54.068;12.114;2023-12-20T11:03:24;1.45;;;0.52;;
61471;SDS011;47337;54.068;12.114;2023-12-20T11:06:03;2.67;;;0.55;;
61471;SDS011;47337;54.068;12.114;2023-12-20T11:11:27;4.85;;;1.35;;
61471;SDS011;47337;54.068;12.114;2023-12-20T11:13:59;4.05;;;0.60;;
61471;SDS011;47337;54.068;12.114;2023-12-20T11:16:30;3.38;;;0.50;;
61471;SDS011;47337;54.068;12.114;2023-12-20T11:18:57;4.80;;;0.73;;
61471;SDS011;47337;54.068;12.114;2023-12-20T11:21:22;2.38;;;0.60;;
61471;SDS011;47337;54.068;12.114;2023-12-20T11:23:47;5.18;;;0.93;;
61471;SDS011;47337;54.068;12.114;2023-12-20T11:26:15;1.20;;;0.40;;
61471;SDS011;47337;54.068;12.114;2023-12-20T11:28:42;7.00;;;1.05;;
61471;SDS011;47337;54.068;12.114;2023-12-20T11:31:07;1.75;;;0.30;;
61471;SDS011;47337;54.068;12.114;2023-12-20T11:33:38;2.38;;;0.40;;
61471;SDS011;47337;54.068;12.114;2023-12-20T11:36:07;1.58;;;0.38;;
61471;SDS011;47337;54.068;12.114;2023-12-20T11:38:38;1.50;;;0.30;;
61471;SDS011;47337;54.068;12.114;2023-12-20T11:41:07;1.00;;;0.45;;
61471;SDS011;47337;54.068;12.114;2023-12-20T11:43:34;1.60;;;0.40;;
61471;SDS011;47337;54.068;12.114;2023-12-20T11:46:04;3.78;;;0.47;;
61471;SDS011;47337;54.068;12.114;2023-12-20T11:48:37;2.60;;;0.40;;
61471;SDS011;47337;54.068;12.114;2023-12-20T11:51:13;2.45;;;0.30;;
61471;SDS011;47337;54.068;12.114;2023-12-20T11:53:39;2.60;;;0.50;;
61471;SDS011;47337;54.068;12.114;2023-12-20T11:56:06;0.70;;;0.35;;
61471;SDS011;47337;54.068;12.114;2023-12-20T11:58:32;1.02;;;0.35;;
61471;SDS011;47337;54.068;12.114;2023-12-20T12:00:58;2.03;;;0.50;;
61471;SDS011;47337;54.068;12.114;2023-12-20T12:03:24;2.20;;;0.55;;
61471;SDS011;47337;54.068;12.114;2023-12-20T12:05:49;1.98;;;0.43;;
61471;SDS011;47337;54.068;12.114;2023-12-20T12:08:15;6.03;;;1.02;;
61471;SDS011;47337;54.068;12.114;2023-12-20T12:10:42;8.02;;;1.30;;
61471;SDS011;47337;54.068;12.114;2023-12-20T12:13:09;7.53;;;1.67;;
61471;SDS011;47337;54.068;12.114;2023-12-20T12:15:35;4.05;;;1.83;;
61471;SDS011;47337;54.068;12.114;2023-12-20T12:18:07;4.03;;;0.95;;
61471;SDS011;47337;54.068;12.114;2023-12-20T12:20:35;5.25;;;0.68;;
61471;SDS011;47337;54.068;12.114;2023-12-20T12:23:04;7.28;;;0.80;;
61471;SDS011;47337;54.068;12.114;2023-12-20T12:25:35;3.30;;;0.70;;
61471;SDS011;47337;54.068;12.114;2023-12-20T12:28:02;1.05;;;0.40;;
61471;SDS011;47337;54.068;12.114;2023-12-20T12:30:30;9.93;;;0.90;;
61471;SDS011;47337;54.068;12.114;2023-12-20T12:32:55;3.75;;;0.40;;
61471;SDS011;47337;54.068;12.114;2023-12-20T12:35:21;5.93;;;0.70;;
61471;SDS011;47337;54.068;12.114;2023-12-20T12:37:47;4.43;;;0.68;;
61471;SDS011;47337;54.068;12.114;2023-12-20T12:40:16;5.78;;;0.93;;
61471;SDS011;47337;54.068;12.114;2023-12-20T12:42:42;4.13;;;0.88;;
61471;SDS011;47337;54.068;12.114;2023-12-20T12:45:11;5.53;;;1.00;;
61471;SDS011;47337;54.068;12.114;2023-12-20T12:47:37;4.05;;;0.80;;
61471;SDS011;47337;54.068;12.114;2023-12-20T12:50:02;1.63;;;0.80;;
61471;SDS011;47337;54.068;12.114;2023-12-20T12:52:28;5.15;;;1.00;;
61471;SDS011;47337;54.068;12.114;2023-12-20T12:54:53;5.47;;;0.90;;
61471;SDS011;47337;54.068;12.114;2023-12-20T12:57:21;3.70;;;0.70;;
61471;SDS011;47337;54.068;12.114;2023-12-20T12:59:47;3.85;;;0.65;;
61471;SDS011;47337;54.068;12.114;2023-12-20T13:02:12;4.97;;;0.90;;
61471;SDS011;47337;54.068;12.114;2023-12-20T13:04:38;5.30;;;0.93;;
61471;SDS011;47337;54.068;12.114;2023-12-20T13:07:04;8.73;;;0.80;;
61471;SDS011;47337;54.068;12.114;2023-12-20T13:09:30;5.95;;;1.17;;
61471;SDS011;47337;54.068;12.114;2023-12-20T13:11:58;8.88;;;1.58;;
61471;SDS011;47337;54.068;12.114;2023-12-20T13:14:26;2.92;;;1.00;;
61471;SDS011;47337;54.068;12.114;2023-12-20T13:16:51;4.85;;;0.65;;
61471;SDS011;47337;54.068;12.114;2023-12-20T13:19:17;6.40;;;1.00;;
61471;SDS011;47337;54.068;12.114;2023-12-20T13:21:42;6.20;;;1.17;;
61471;SDS011;47337;54.068;12.114;2023-12-20T13:24:08;10.85;;;0.85;;
61471;SDS011;47337;54.068;12.114;2023-12-20T13:26:35;6.43;;;1.10;;
61471;SDS011;47337;54.068;12.114;2023-12-20T13:29:01;11.85;;;1.33;;
61471;SDS011;47337;54.068;12.114;2023-12-20T13:31:26;10.85;;;1.05;;
61471;SDS011;47337;54.068;12.114;2023-12-20T13:33:52;8.05;;;1.00;;
61471;SDS011;47337;54.068;12.114;2023-12-20T13:36:17;5.28;;;0.93;;
61471;SDS011;47337;54.068;12.114;2023-12-20T13:38:43;6.57;;;0.80;;
61471;SDS011;47337;54.068;12.114;2023-12-20T13:41:08;7.32;;;0.90;;
61471;SDS011;47337;54.068;12.114;2023-12-20T13:43:34;10.50;;;1.70;;
61471;SDS011;47337;54.068;12.114;2023-12-20T13:45:59;8.75;;;1.35;;
61471;SDS011;47337;54.068;12.114;2023-12-20T13:48:25;6.28;;;0.93;;
61471;SDS011;47337;54.068;12.114;2023-12-20T13:50:50;2.97;;;0.90;;
61471;SDS011;47337;54.068;12.114;2023-12-20T13:53:15;4.75;;;1.02;;
61471;SDS011;47337;54.068;12.114;2023-12-20T13:55:41;5.35;;;1.33;;
61471;SDS011;47337;54.068;12.114;2023-12-20T13:58:06;4.22;;;1.35;;
61471;SDS011;47337;54.068;12.114;2023-12-20T14:00:32;7.43;;;1.88;;
61471;SDS011;47337;54.068;12.114;2023-12-20T14:03:01;5.10;;;1.00;;
61471;SDS011;47337;54.068;12.114;2023-12-20T14:05:29;3.05;;;1.40;;
61471;SDS011;47337;54.068;12.114;2023-12-20T14:07:55;6.40;;;1.40;;
61471;SDS011;47337;54.068;12.114;2023-12-20T14:10:25;6.35;;;1.33;;
61471;SDS011;47337;54.068;12.114;2023-12-20T14:12:51;9.15;;;1.67;;
61471;SDS011;47337;54.068;12.114;2023-12-20T14:15:19;10.65;;;2.33;;
61471;SDS011;47337;54.068;12.114;2023-12-20T14:17:45;7.45;;;1.33;;
61471;SDS011;47337;54.068;12.114;2023-12-20T14:20:10;4.07;;;1.40;;
61471;SDS011;47337;54.068;12.114;2023-12-20T14:22:39;8.63;;;1.65;;
61471;SDS011;47337;54.068;12.114;2023-12-20T14:25:10;9.07;;;2.15;;
61471;SDS011;47337;54.068;12.114;2023-12-20T14:27:37;7.80;;;2.10;;
61471;SDS011;47337;54.068;12.114;2023-12-20T14:30:05;12.73;;;2.00;;